Aérodrome :
LOGIN :

S'inscrire | Disclaimer

   EN    FR    IT 

 










Légende :    VFR   VFR Marginal   IFR   IFR Intensif   IFR Très Intensif
Visi : 
Plafond : 
>= 8 km
>= 3000ft
5 à 8 km
1000 à 3000 ft
1500m à 5 km
500 à 1000 ft
800 à 1500m
200 à 500 ft
< 800m
< 200 ft
Symboles :   Orages  Brouillard  Fortes neiges  Fortes précipitations  Vent > 20 kt
SIGMETs :   Divers  Orages  Givrage  Turbulence  Onde Orograph.  Cendres Volcan.







- Altitude de l'aérodrome : 2661 ft
- Code IATA : TEE


DABS - Cheikh Larbi Tebessi

DERNIER METAR :
  • 200100Z 02008KT 9999 FEW040 SCT100 07/04 Q1017

METARs EXPIRÉS :
  • 200000Z 36010KT 9999 FEW040 SCT100 07/03 Q1017
  • 192300Z 02008KT CAVOK 06/03 Q1017

TAF TAF DABS
Valide du 20 à 00h jusqu'au 21 à 00h UTC


192300Z 2000/2024 32010KT 9999 FEW030TCU SCT100
Pas de NOTAMs connus pour ce terrain.



MET'MAP, la Météo Aéronautique d'un coup d'oeil ! - Copyright ORBIFLY Décembre 2007 - Disclaimer

ORBIFLY MET'MAP TEAM :

Programmation & Développement : Alexandra Zaïnal
Conception & Développement : Baudouin d'Aumeries
Co-Programmation & Développement : Marc-Olivier Méhu
Soutien technique & logistique : Manuel Goepfert

Contact : metmap@orbifly.com




SOURCES & CREDITS :

   NOAA